createdAt,value
2023-02-01T00:00:40.656Z,7.93
2023-02-01T00:03:09.539Z,8.02
2023-02-01T00:05:36.837Z,7.32
2023-02-01T00:08:04.373Z,8.05
2023-02-01T00:10:31.744Z,7.90
2023-02-01T00:12:59.039Z,7.25
2023-02-01T00:15:26.295Z,7.57
2023-02-01T00:17:56.673Z,7.22
2023-02-01T00:20:24.005Z,7.18
2023-02-01T00:22:51.297Z,7.30
2023-02-01T00:25:18.618Z,7.03
2023-02-01T00:27:50.380Z,7.47
2023-02-01T00:30:19.807Z,6.45
2023-02-01T00:32:47.343Z,7.43
2023-02-01T00:35:14.847Z,7.20
2023-02-01T00:37:42.049Z,7.43
2023-02-01T00:40:09.920Z,6.60
2023-02-01T00:42:37.216Z,7.25
2023-02-01T00:45:04.906Z,6.53
2023-02-01T00:47:33.256Z,7.25
2023-02-01T00:50:00.541Z,6.85
2023-02-01T00:52:28.412Z,7.70
2023-02-01T00:54:55.684Z,6.32
2023-02-01T00:57:22.971Z,7.03
2023-02-01T00:59:50.176Z,6.60
2023-02-01T01:02:17.510Z,7.05
2023-02-01T01:04:44.816Z,6.32
2023-02-01T01:07:12.052Z,6.63
2023-02-01T01:09:39.469Z,6.30
2023-02-01T01:12:06.761Z,6.82
2023-02-01T01:14:34.186Z,6.75
2023-02-01T01:17:01.432Z,6.22
2023-02-01T01:19:28.663Z,5.72
2023-02-01T01:21:55.932Z,6.63
2023-02-01T01:24:23.271Z,6.35
2023-02-01T01:26:50.579Z,6.65
2023-02-01T01:29:17.872Z,5.85
2023-02-01T01:31:45.257Z,5.72
2023-02-01T01:34:12.564Z,6.07
2023-02-01T01:36:39.868Z,6.18
2023-02-01T01:39:07.117Z,6.68
2023-02-01T01:41:34.862Z,6.03
2023-02-01T01:44:59.035Z,6.53
2023-02-01T01:47:37.940Z,6.10
2023-02-01T01:50:09.126Z,5.75
2023-02-01T01:52:38.485Z,6.20
2023-02-01T01:55:06.463Z,5.22
2023-02-01T01:57:40.692Z,5.75
2023-02-01T02:00:14.205Z,5.68
2023-02-01T02:02:47.806Z,5.45
2023-02-01T02:05:18.271Z,6.32
2023-02-01T02:07:51.947Z,5.80
2023-02-01T02:10:20.673Z,6.18
2023-02-01T02:12:49.968Z,5.88
2023-02-01T02:15:18.084Z,6.43
2023-02-01T02:18:06.291Z,6.28
2023-02-01T02:21:17.911Z,5.20
2023-02-01T02:24:18.035Z,5.60
2023-02-01T02:27:06.961Z,5.47
2023-02-01T02:29:34.209Z,5.60
2023-02-01T02:32:05.114Z,5.57
2023-02-01T02:34:32.351Z,5.82
2023-02-01T02:37:28.747Z,5.53
2023-02-01T02:40:02.166Z,5.32
2023-02-01T02:43:03.541Z,4.88
2023-02-01T02:46:00.991Z,5.43
2023-02-01T02:48:48.510Z,5.75
2023-02-01T02:51:42.328Z,5.63
2023-02-01T02:54:33.570Z,5.60
2023-02-01T02:57:22.232Z,5.03
2023-02-01T03:00:08.449Z,5.22
2023-02-01T03:02:54.744Z,5.38
2023-02-01T03:05:22.041Z,5.22
2023-02-01T03:08:02.251Z,5.63
2023-02-01T03:10:57.409Z,4.72
2023-02-01T03:13:37.799Z,5.15
2023-02-01T03:16:16.624Z,4.68
2023-02-01T03:19:07.607Z,5.20
2023-02-01T03:21:38.803Z,4.78
2023-02-01T03:24:13.536Z,5.57
2023-02-01T03:26:47.823Z,4.22
2023-02-01T03:29:22.840Z,4.63
2023-02-01T03:31:50.252Z,4.55
2023-02-01T03:34:18.051Z,4.72
2023-02-01T03:37:04.899Z,4.70
2023-02-01T03:39:37.205Z,4.57
2023-02-01T03:42:10.792Z,5.07
2023-02-01T03:44:54.997Z,4.07
2023-02-01T03:49:58.813Z,4.72
2023-02-01T03:52:45.664Z,4.47
2023-02-01T03:55:18.424Z,5.43
2023-02-01T03:58:11.119Z,3.97
2023-02-01T04:00:38.757Z,4.27
2023-02-01T04:03:07.750Z,3.88
2023-02-01T04:05:35.577Z,4.20
2023-02-01T04:08:07.375Z,4.70
2023-02-01T04:10:34.675Z,4.05
2023-02-01T04:13:02.005Z,3.92
2023-02-01T04:15:29.267Z,4.30
2023-02-01T04:17:56.630Z,4.00
2023-02-01T04:20:24.338Z,3.88
2023-02-01T04:22:52.169Z,4.03
2023-02-01T04:25:19.667Z,4.18
2023-02-01T04:27:47.698Z,3.95
2023-02-01T04:30:15.383Z,4.00
2023-02-01T04:32:42.690Z,3.85
2023-02-01T04:35:10.397Z,4.05
2023-02-01T04:37:37.763Z,4.47
2023-02-01T04:40:05.576Z,3.97
2023-02-01T04:42:32.847Z,4.18
2023-02-01T04:45:00.130Z,3.80
2023-02-01T04:47:27.442Z,4.00
2023-02-01T04:49:54.662Z,4.05
2023-02-01T04:52:21.955Z,3.72
2023-02-01T04:54:49.222Z,3.80
2023-02-01T04:57:16.528Z,4.20
2023-02-01T04:59:43.806Z,3.78
2023-02-01T05:02:11.104Z,3.85
2023-02-01T05:04:38.363Z,4.13
2023-02-01T05:07:05.653Z,3.95
2023-02-01T05:09:32.870Z,4.38
2023-02-01T05:12:19.023Z,3.70
2023-02-01T05:14:46.381Z,3.85
2023-02-01T05:17:13.746Z,3.58
2023-02-01T05:19:40.950Z,4.10
2023-02-01T05:22:08.128Z,4.15
2023-02-01T05:24:35.467Z,3.92
2023-02-01T05:27:02.794Z,3.30
2023-02-01T05:29:30.187Z,3.72
2023-02-01T05:32:00.972Z,4.03
2023-02-01T05:34:32.539Z,3.92
2023-02-01T05:37:00.338Z,4.20
2023-02-01T05:39:27.636Z,3.63
2023-02-01T05:41:54.987Z,3.30
2023-02-01T05:44:22.288Z,3.85
2023-02-01T05:46:50.276Z,3.17
2023-02-01T05:49:17.597Z,3.42
2023-02-01T05:51:44.832Z,3.67
2023-02-01T05:54:12.350Z,3.83
2023-02-01T05:56:39.615Z,3.72
2023-02-01T05:59:06.866Z,4.00
2023-02-01T06:01:34.175Z,4.22
2023-02-01T06:04:01.542Z,3.97
2023-02-01T06:06:28.904Z,4.03
2023-02-01T06:08:56.281Z,3.78
2023-02-01T06:11:32.435Z,4.05
2023-02-01T06:14:00.928Z,3.30
2023-02-01T06:16:28.434Z,3.33
2023-02-01T06:18:57.691Z,4.10
2023-02-01T06:21:25.137Z,3.50
2023-02-01T06:23:53.472Z,3.50
2023-02-01T06:26:21.359Z,3.95
2023-02-01T06:28:48.629Z,4.32
2023-02-01T06:31:16.115Z,3.88
2023-02-01T06:33:43.836Z,4.13
2023-02-01T06:36:13.395Z,3.35
2023-02-01T06:38:40.852Z,4.13
2023-02-01T06:41:08.322Z,4.22
2023-02-01T06:43:35.647Z,4.03
2023-02-01T06:46:05.544Z,3.60
2023-02-01T06:48:33.520Z,4.38
2023-02-01T06:51:01.239Z,3.95
2023-02-01T06:53:28.647Z,3.90
2023-02-01T06:55:58.566Z,4.07
2023-02-01T06:58:33.598Z,4.20
2023-02-01T07:01:08.535Z,4.05
2023-02-01T07:03:36.693Z,4.97
2023-02-01T07:06:05.493Z,4.75
2023-02-01T07:08:35.839Z,4.28
2023-02-01T07:11:05.481Z,3.97
2023-02-01T07:13:33.031Z,4.07
2023-02-01T07:16:05.375Z,4.40
2023-02-01T07:18:33.613Z,4.35
2023-02-01T07:21:01.244Z,4.10
2023-02-01T07:23:28.665Z,4.25
2023-02-01T07:25:58.125Z,3.97
2023-02-01T07:28:26.101Z,4.30
2023-02-01T07:30:53.544Z,3.55
2023-02-01T07:33:23.107Z,3.67
2023-02-01T07:35:51.557Z,4.60
2023-02-01T07:38:18.990Z,4.18
2023-02-01T07:40:46.239Z,4.10
2023-02-01T07:43:13.499Z,4.22
2023-02-01T07:45:40.719Z,4.60
2023-02-01T07:48:11.142Z,4.53
2023-02-01T07:50:38.409Z,4.30
2023-02-01T07:53:05.732Z,4.03
2023-02-01T07:55:33.039Z,3.80
2023-02-01T07:58:00.295Z,4.50
2023-02-01T08:00:50.309Z,4.18
2023-02-01T08:03:17.938Z,4.28
2023-02-01T08:05:45.228Z,5.32
2023-02-01T08:08:12.983Z,6.68
2023-02-01T08:10:40.302Z,9.30
2023-02-01T08:13:07.732Z,10.35
2023-02-01T08:15:34.990Z,11.70
2023-02-01T08:18:03.321Z,10.60
2023-02-01T08:20:30.799Z,12.15
2023-02-01T08:22:58.246Z,11.10
2023-02-01T08:25:25.548Z,12.05
2023-02-01T08:27:52.972Z,12.45
2023-02-01T08:30:20.686Z,11.63
2023-02-01T08:32:48.921Z,12.60
2023-02-01T08:35:16.431Z,12.63
2023-02-01T08:37:43.760Z,11.35
2023-02-01T08:40:11.655Z,12.52
2023-02-01T08:42:54.051Z,11.80
2023-02-01T08:45:27.117Z,12.80
2023-02-01T08:50:22.951Z,11.52
2023-02-01T08:52:50.445Z,12.30
2023-02-01T08:55:17.999Z,11.18
2023-02-01T08:57:45.529Z,11.55
2023-02-01T09:00:16.484Z,11.95
2023-02-01T09:02:44.527Z,13.40
2023-02-01T09:05:12.594Z,12.15
2023-02-01T09:07:39.977Z,13.00
2023-02-01T09:10:07.976Z,13.38
2023-02-01T09:12:35.942Z,11.77
2023-02-01T09:15:04.186Z,11.15
2023-02-01T09:17:31.707Z,9.68
2023-02-01T09:19:59.061Z,9.52
2023-02-01T09:22:26.341Z,8.73
2023-02-01T09:24:55.320Z,8.27
2023-02-01T09:27:23.180Z,8.65
2023-02-01T09:29:53.513Z,8.27
2023-02-01T09:32:21.967Z,7.97
2023-02-01T09:34:52.955Z,7.90
2023-02-01T09:37:20.962Z,7.78
2023-02-01T09:39:48.717Z,7.55
2023-02-01T09:42:34.693Z,9.13
2023-02-01T09:45:20.164Z,9.48
2023-02-01T09:47:56.616Z,9.00
2023-02-01T09:50:39.975Z,8.32
2023-02-01T09:55:50.873Z,8.40
2023-02-01T09:58:25.977Z,7.70
2023-02-01T10:00:57.072Z,7.93
2023-02-01T10:03:44.750Z,7.55
2023-02-01T10:06:31.997Z,7.35
2023-02-01T10:09:07.944Z,6.75
2023-02-01T10:11:49.448Z,7.40
2023-02-01T10:14:40.505Z,6.40
2023-02-01T10:17:16.948Z,7.35
2023-02-01T10:19:57.291Z,7.10
2023-02-01T10:22:55.012Z,6.82
2023-02-01T10:25:29.729Z,6.78
2023-02-01T10:27:58.189Z,6.97
2023-02-01T10:30:34.639Z,6.65
2023-02-01T10:33:19.243Z,7.15
2023-02-01T10:35:47.589Z,7.13
2023-02-01T10:38:34.112Z,7.00
2023-02-01T10:41:08.696Z,6.93
2023-02-01T10:43:36.355Z,7.68
2023-02-01T10:46:04.580Z,6.97
2023-02-01T10:48:33.138Z,6.60
2023-02-01T10:51:03.577Z,7.05
2023-02-01T10:54:02.794Z,7.35
2023-02-01T10:56:32.494Z,6.95
2023-02-01T10:59:05.782Z,7.05
2023-02-01T11:01:40.390Z,5.85
2023-02-01T11:04:27.466Z,6.95
2023-02-01T11:07:09.650Z,6.28
2023-02-01T11:09:41.579Z,6.82
2023-02-01T11:12:35.407Z,5.88
2023-02-01T11:15:24.253Z,6.70
2023-02-01T11:17:53.778Z,6.82
2023-02-01T11:20:42.807Z,5.93
2023-02-01T11:23:22.575Z,6.72
2023-02-01T11:25:55.307Z,5.90
2023-02-01T11:28:27.031Z,5.80
2023-02-01T11:30:57.297Z,6.15
2023-02-01T11:33:36.672Z,5.90
2023-02-01T11:36:16.306Z,5.88
2023-02-01T11:38:53.847Z,6.03
2023-02-01T11:41:27.747Z,5.70
2023-02-01T11:44:00.440Z,6.18
2023-02-01T11:46:33.874Z,7.50
2023-02-01T11:49:24.010Z,6.13
2023-02-01T11:52:05.970Z,6.53
2023-02-01T11:54:47.365Z,5.78
2023-02-01T11:57:26.462Z,5.72
2023-02-01T12:00:09.743Z,6.20
2023-02-01T12:03:06.449Z,5.38
2023-02-01T12:05:53.559Z,5.05
2023-02-01T12:08:41.958Z,5.63
2023-02-01T12:12:02.947Z,5.10
2023-02-01T12:14:51.320Z,5.40
2023-02-01T12:17:42.895Z,5.97
2023-02-01T12:20:25.256Z,5.45
2023-02-01T12:23:17.542Z,4.88
2023-02-01T12:25:58.567Z,5.13
2023-02-01T12:28:31.802Z,4.43
2023-02-01T12:31:30.347Z,5.38
2023-02-01T12:34:19.143Z,5.13
2023-02-01T12:37:14.093Z,5.32
2023-02-01T12:39:53.048Z,5.00
2023-02-01T12:43:00.470Z,4.72
2023-02-01T12:45:47.833Z,5.13
2023-02-01T12:48:33.617Z,4.85
2023-02-01T12:51:05.960Z,4.90
2023-02-01T12:53:52.682Z,4.93
2023-02-01T12:56:32.138Z,5.03
2023-02-01T12:59:03.357Z,4.40
2023-02-01T13:01:40.118Z,4.38
2023-02-01T13:04:20.015Z,5.18
2023-02-01T13:07:07.344Z,3.88
2023-02-01T13:09:44.400Z,4.63
2023-02-01T13:12:25.670Z,4.85
2023-02-01T13:15:18.395Z,4.45
2023-02-01T13:17:47.560Z,4.73
2023-02-01T13:20:25.703Z,4.65
2023-02-01T13:23:00.402Z,4.47
2023-02-01T13:25:39.070Z,4.68
2023-02-01T13:28:17.266Z,4.40
2023-02-01T13:31:04.706Z,5.00
2023-02-01T13:33:54.125Z,4.85
2023-02-01T13:36:31.507Z,4.47
2023-02-01T13:39:26.049Z,5.30
2023-02-01T13:42:03.729Z,4.63
2023-02-01T13:44:44.169Z,4.38
2023-02-01T13:47:39.481Z,4.20
2023-02-01T13:50:38.509Z,3.83
2023-02-01T13:53:18.288Z,4.40
2023-02-01T13:55:47.931Z,4.47
2023-02-01T13:58:43.136Z,4.47
2023-02-01T14:01:22.719Z,4.10
2023-02-01T14:03:53.164Z,4.68
2023-02-01T14:06:29.191Z,4.03
2023-02-01T14:09:14.583Z,4.47
2023-02-01T14:11:47.513Z,4.25
2023-02-01T14:14:14.723Z,3.85
2023-02-01T14:17:06.170Z,3.97
2023-02-01T14:19:35.031Z,3.53
2023-02-01T14:22:22.255Z,4.22
2023-02-01T14:24:55.737Z,3.85
2023-02-01T14:27:29.659Z,4.05
2023-02-01T14:30:06.176Z,4.38
2023-02-01T14:32:37.546Z,4.13
2023-02-01T14:35:19.520Z,4.80
2023-02-01T14:37:47.740Z,4.47
2023-02-01T14:40:15.153Z,4.28
2023-02-01T14:42:42.383Z,3.70
2023-02-01T14:45:28.726Z,3.90
2023-02-01T14:48:08.403Z,4.30
2023-02-01T14:50:42.701Z,3.60
2023-02-01T14:53:13.629Z,4.15
2023-02-01T14:55:43.827Z,3.90
2023-02-01T14:58:44.939Z,3.72
2023-02-01T15:01:25.973Z,4.00
2023-02-01T15:03:56.418Z,4.07
2023-02-01T15:06:25.955Z,4.20
2023-02-01T15:09:05.251Z,3.70
2023-02-01T15:11:32.631Z,3.58
2023-02-01T15:14:01.475Z,3.65
2023-02-01T15:16:28.899Z,3.63
2023-02-01T15:19:12.523Z,4.10
2023-02-01T15:21:49.004Z,3.97
2023-02-01T15:24:22.993Z,4.45
2023-02-01T15:26:52.028Z,4.22
2023-02-01T15:29:21.685Z,3.90
2023-02-01T15:31:52.601Z,4.30
2023-02-01T15:34:21.064Z,4.40
2023-02-01T15:37:01.991Z,4.53
2023-02-01T15:39:32.369Z,3.65
2023-02-01T15:42:09.910Z,3.92
2023-02-01T15:44:41.306Z,4.28
2023-02-01T15:47:16.505Z,4.05
2023-02-01T15:49:48.549Z,3.63
2023-02-01T15:52:36.249Z,3.40
2023-02-01T15:55:18.359Z,3.38
2023-02-01T15:57:46.082Z,4.45
2023-02-01T16:00:23.698Z,3.70
2023-02-01T16:02:55.638Z,4.18
2023-02-01T16:05:45.695Z,4.10
2023-02-01T16:08:16.438Z,3.67
2023-02-01T16:10:46.927Z,4.22
2023-02-01T16:13:15.809Z,3.40
2023-02-01T16:15:43.733Z,4.40
2023-02-01T16:18:12.451Z,3.88
2023-02-01T16:20:41.529Z,4.40
2023-02-01T16:23:10.576Z,3.80
2023-02-01T16:25:39.098Z,3.63
2023-02-01T16:28:06.469Z,4.13
2023-02-01T16:30:34.158Z,3.63
2023-02-01T16:33:09.006Z,4.20
2023-02-01T16:35:38.240Z,4.07
2023-02-01T16:38:13.252Z,3.90
2023-02-01T16:40:42.533Z,3.70
2023-02-01T16:43:17.289Z,4.20
2023-02-01T16:45:49.440Z,3.72
2023-02-01T16:48:30.724Z,3.50
2023-02-01T16:51:01.279Z,4.28
2023-02-01T16:53:31.840Z,5.15
2023-02-01T16:56:00.407Z,4.25
2023-02-01T16:58:30.809Z,5.20
2023-02-01T17:00:58.065Z,5.22
2023-02-01T17:03:25.344Z,5.50
2023-02-01T17:05:57.779Z,5.15
2023-02-01T17:08:35.368Z,5.95
2023-02-01T17:11:04.009Z,5.40
2023-02-01T17:13:31.843Z,5.68
2023-02-01T17:16:03.416Z,5.68
2023-02-01T17:18:34.241Z,5.47
2023-02-01T17:21:03.545Z,5.32
2023-02-01T17:23:32.102Z,5.40
2023-02-01T17:25:59.664Z,6.40
2023-02-01T17:28:27.059Z,5.15
2023-02-01T17:30:55.485Z,6.03
2023-02-01T17:33:45.645Z,6.00
2023-02-01T17:36:16.578Z,5.70
2023-02-01T17:38:50.960Z,6.13
2023-02-01T17:41:20.959Z,6.53
2023-02-01T17:43:49.559Z,6.70
2023-02-01T17:46:21.144Z,6.38
2023-02-01T17:48:48.571Z,6.43
2023-02-01T17:51:23.714Z,6.53
2023-02-01T17:53:51.206Z,6.20
2023-02-01T17:56:21.432Z,7.10
2023-02-01T17:58:49.975Z,6.75
2023-02-01T18:01:24.835Z,6.95
2023-02-01T18:03:52.398Z,6.70
2023-02-01T18:06:26.532Z,6.45
2023-02-01T18:08:54.337Z,6.45
2023-02-01T18:11:24.021Z,7.28
2023-02-01T18:13:55.966Z,7.63
2023-02-01T18:16:31.253Z,7.00
2023-02-01T18:19:05.259Z,7.15
2023-02-01T18:21:36.402Z,7.13
2023-02-01T18:24:04.340Z,6.90
2023-02-01T18:26:31.596Z,7.30
2023-02-01T18:28:59.051Z,7.82
2023-02-01T18:31:30.273Z,7.07
2023-02-01T18:33:59.200Z,7.15
2023-02-01T18:36:28.054Z,7.13
2023-02-01T18:38:57.629Z,8.60
2023-02-01T18:41:25.664Z,7.53
2023-02-01T18:43:53.349Z,9.02
2023-02-01T18:46:22.812Z,8.48
2023-02-01T18:48:50.143Z,7.20
2023-02-01T18:51:23.610Z,7.00
2023-02-01T18:53:51.738Z,7.80
2023-02-01T18:56:19.111Z,6.95
2023-02-01T18:58:46.936Z,7.07
2023-02-01T19:01:17.095Z,6.63
2023-02-01T19:03:48.475Z,7.00
2023-02-01T19:06:30.103Z,7.00
2023-02-01T19:08:57.464Z,6.53
2023-02-01T19:11:24.958Z,7.30
2023-02-01T19:13:52.306Z,6.88
2023-02-01T19:16:19.703Z,6.55
2023-02-01T19:18:52.093Z,6.88
2023-02-01T19:21:19.430Z,6.32
2023-02-01T19:23:46.806Z,7.22
2023-02-01T19:26:16.160Z,6.32
2023-02-01T19:28:48.794Z,7.35
2023-02-01T19:31:17.749Z,7.75
2023-02-01T19:33:45.123Z,6.85
2023-02-01T19:36:12.509Z,7.00
2023-02-01T19:38:40.600Z,7.53
2023-02-01T19:41:08.135Z,7.70
2023-02-01T19:43:36.889Z,7.57
2023-02-01T19:46:04.616Z,8.20
2023-02-01T19:48:34.265Z,7.35
2023-02-01T19:51:02.377Z,8.45
2023-02-01T19:53:30.487Z,8.13
2023-02-01T19:55:58.648Z,8.20
2023-02-01T19:58:26.732Z,8.98
2023-02-01T20:00:57.408Z,8.35
2023-02-01T20:03:24.835Z,8.18
2023-02-01T20:05:53.243Z,8.13
2023-02-01T20:08:21.186Z,9.43
2023-02-01T20:10:50.030Z,9.60
2023-02-01T20:13:17.974Z,8.60
2023-02-01T20:15:45.947Z,9.68
2023-02-01T20:18:13.659Z,8.85
2023-02-01T20:20:41.838Z,9.13
2023-02-01T20:23:09.204Z,9.00
2023-02-01T20:25:38.217Z,9.02
2023-02-01T20:28:05.627Z,9.52
2023-02-01T20:30:33.121Z,9.70
2023-02-01T20:33:00.577Z,10.02
2023-02-01T20:35:30.458Z,10.30
2023-02-01T20:37:59.115Z,10.70
2023-02-01T20:40:26.489Z,10.73
2023-02-01T20:42:58.050Z,10.52
2023-02-01T20:45:26.661Z,10.60
2023-02-01T20:47:54.256Z,11.02
2023-02-01T20:50:21.933Z,10.82
2023-02-01T20:52:49.221Z,9.40
2023-02-01T20:55:16.666Z,10.02
2023-02-01T20:57:43.979Z,10.20
2023-02-01T21:00:12.622Z,10.80
2023-02-01T21:02:39.984Z,10.85
2023-02-01T21:05:08.098Z,9.85
2023-02-01T21:07:37.169Z,9.90
2023-02-01T21:10:05.696Z,10.10
2023-02-01T21:12:33.166Z,10.25
2023-02-01T21:15:00.483Z,10.30
2023-02-01T21:17:33.047Z,9.77
2023-02-01T21:20:00.324Z,10.68
2023-02-01T21:22:27.614Z,10.18
2023-02-01T21:24:54.941Z,10.98
2023-02-01T21:27:22.407Z,10.48
2023-02-01T21:29:49.746Z,10.68
2023-02-01T21:32:17.022Z,11.05
2023-02-01T21:34:44.346Z,10.30
2023-02-01T21:37:11.630Z,11.02
2023-02-01T21:39:38.884Z,10.57
2023-02-01T21:42:16.750Z,10.23
2023-02-01T21:44:48.486Z,10.95
2023-02-01T21:47:18.452Z,10.48
2023-02-01T21:49:47.336Z,10.73
2023-02-01T21:52:16.374Z,9.20
2023-02-01T21:54:43.677Z,10.70
2023-02-01T21:57:14.209Z,10.77
2023-02-01T21:59:43.470Z,10.07
2023-02-01T22:02:16.346Z,9.45
2023-02-01T22:04:44.640Z,10.68
2023-02-01T22:07:12.595Z,11.02
2023-02-01T22:09:40.179Z,10.93
2023-02-01T22:12:08.521Z,10.13
2023-02-01T22:14:35.801Z,10.55
2023-02-01T22:17:03.261Z,11.30
2023-02-01T22:19:30.668Z,10.65
2023-02-01T22:21:57.920Z,9.98
2023-02-01T22:24:25.230Z,10.25
2023-02-01T22:26:52.621Z,10.00
2023-02-01T22:29:19.893Z,10.13
2023-02-01T22:31:47.951Z,10.07
2023-02-01T22:34:15.957Z,10.45
2023-02-01T22:36:43.993Z,11.25
2023-02-01T22:39:11.325Z,10.93
2023-02-01T22:41:39.257Z,10.73
2023-02-01T22:44:07.018Z,10.27
2023-02-01T22:46:34.378Z,10.57
2023-02-01T22:49:02.097Z,10.32
2023-02-01T22:51:32.301Z,10.15
2023-02-01T22:54:00.051Z,10.27
2023-02-01T22:56:36.333Z,10.30
2023-02-01T22:59:06.594Z,11.65
2023-02-01T23:01:35.113Z,10.85
2023-02-01T23:04:05.659Z,10.85
2023-02-01T23:06:34.447Z,10.80
2023-02-01T23:09:06.194Z,10.40
2023-02-01T23:11:33.375Z,10.63
2023-02-01T23:14:00.706Z,9.70
2023-02-01T23:16:28.022Z,11.07
2023-02-01T23:18:56.679Z,10.48
2023-02-01T23:21:24.182Z,10.23
2023-02-01T23:23:54.280Z,10.45
2023-02-01T23:26:23.341Z,10.45
2023-02-01T23:28:55.059Z,9.65
2023-02-01T23:31:25.703Z,10.65
2023-02-01T23:33:56.881Z,9.80
2023-02-01T23:36:25.810Z,10.77
2023-02-01T23:38:53.360Z,10.95
2023-02-01T23:41:22.311Z,9.80
2023-02-01T23:43:58.611Z,10.75
2023-02-01T23:46:27.404Z,9.77
2023-02-01T23:48:55.228Z,10.15
2023-02-01T23:51:23.622Z,10.60
2023-02-01T23:53:51.702Z,9.45
2023-02-01T23:56:28.329Z,9.32
2023-02-01T23:58:56.877Z,10.07
